Time;durP1;ratioP1;P1;durP2;ratioP2;P2;SDS_P1;SDS_P2;PMS_P1;PMS_P2;Temp;Humidity;BMP_temperature;BMP_pressure;BME280_temperature;BME280_humidity;BME280_pressure;Samples;Min_cycle;Max_cycle;Signal;HPM_P1;HPM_P2
2022/09/16 00:00:52;;;;;;;7.57;6.27;;;;;;;14.94;100.00;97577.94;4163077;28;20698;-84
2022/09/16 00:02:56;;;;;;;6.80;5.60;;;;;;;14.95;100.00;97576.16;4149408;28;20648;-84
2022/09/16 00:04:59;;;;;;;8.93;6.43;;;;;;;14.92;100.00;97573.84;4152756;28;20632;-84
2022/09/16 00:07:02;;;;;;;13.23;7.20;;;;;;;14.91;100.00;97572.16;4158786;28;20717;-84
2022/09/16 00:09:06;;;;;;;7.00;6.30;;;;;;;14.90;99.81;97579.22;4173881;28;20681;-85
2022/09/16 00:11:09;;;;;;;7.20;6.50;;;;;;;14.91;99.78;97574.78;4136993;28;20803;-84
2022/09/16 00:13:13;;;;;;;6.97;6.37;;;;;;;14.92;100.00;97573.84;4169400;28;20635;-84
2022/09/16 00:15:17;;;;;;;7.17;6.57;;;;;;;14.94;100.00;97570.06;4134358;28;20645;-85
2022/09/16 00:17:20;;;;;;;7.10;6.40;;;;;;;14.93;100.00;97565.81;4171135;28;20704;-84
2022/09/16 00:19:23;;;;;;;8.23;5.70;;;;;;;14.95;100.00;97566.47;4139326;28;21235;-84
2022/09/16 00:21:26;;;;;;;6.60;5.90;;;;;;;14.95;100.00;97566.47;4158362;28;20742;-84
2022/09/16 00:23:29;;;;;;;6.40;5.80;;;;;;;14.95;100.00;97568.28;4157662;28;20624;-84
2022/09/16 00:25:34;;;;;;;7.37;5.93;;;;;;;14.94;99.49;97567.44;4156793;28;20692;-84
2022/09/16 00:27:37;;;;;;;7.77;6.97;;;;;;;14.94;99.67;97564.81;4171244;28;20741;-84
2022/09/16 00:29:40;;;;;;;7.77;6.20;;;;;;;14.95;99.77;97568.28;4150925;28;21243;-84
2022/09/16 00:31:43;;;;;;;7.90;7.10;;;;;;;14.98;100.00;97579.31;4150887;28;21243;-84
2022/09/16 00:33:46;;;;;;;9.63;8.73;;;;;;;15.01;100.00;97573.78;4140866;28;20651;-84
2022/09/16 00:35:49;;;;;;;8.60;7.73;;;;;;;15.04;100.00;97570.88;4155117;28;20690;-84
2022/09/16 00:37:52;;;;;;;10.10;7.13;;;;;;;15.06;100.00;97566.28;4154452;28;20663;-84
2022/09/16 00:39:55;;;;;;;7.23;6.53;;;;;;;15.07;100.00;97566.16;4139619;28;20743;-85
2022/09/16 00:41:59;;;;;;;7.53;6.83;;;;;;;15.08;100.00;97569.63;4144613;28;20740;-85
2022/09/16 00:44:06;;;;;;;8.17;6.40;;;;;;;15.08;100.00;97577.50;4151733;28;20631;-85
2022/09/16 00:46:09;;;;;;;6.63;6.03;;;;;;;15.07;100.00;97577.66;4151260;28;20660;-84
2022/09/16 00:48:15;;;;;;;6.63;5.93;;;;;;;15.06;100.00;97583.88;4169881;28;20642;-84
2022/09/16 00:50:22;;;;;;;8.60;6.50;;;;;;;15.05;100.00;97580.41;4173930;28;21213;-84
2022/09/16 00:52:26;;;;;;;7.13;6.00;;;;;;;15.07;100.00;97583.72;4136358;28;20636;-85
2022/09/16 00:54:29;;;;;;;7.90;6.27;;;;;;;15.05;100.00;97574.31;4147923;28;20722;-85
2022/09/16 00:56:36;;;;;;;7.30;6.53;;;;;;;15.04;100.00;97576.13;4154458;28;20659;-85
2022/09/16 00:58:44;;;;;;;7.40;5.97;;;;;;;15.04;100.00;97572.69;4150287;28;20620;-85
2022/09/16 01:00:47;;;;;;;10.23;6.23;;;;;;;15.02;100.00;97574.59;4138315;28;21409;-85
2022/09/16 01:02:51;;;;;;;7.53;6.70;;;;;;;15.03;100.00;97578.91;4137022;28;20742;-84
2022/09/16 01:04:57;;;;;;;7.17;6.10;;;;;;;15.00;100.00;97580.00;4143123;28;20667;-84
2022/09/16 01:07:00;;;;;;;7.90;7.10;;;;;;;15.01;99.61;97575.59;4154579;28;20671;-85
2022/09/16 01:09:04;;;;;;;6.80;6.20;;;;;;;14.99;100.00;97572.25;4143019;28;20760;-84
2022/09/16 01:11:07;;;;;;;8.20;6.70;;;;;;;15.00;100.00;97572.13;4173830;28;20745;-84
2022/09/16 01:13:12;;;;;;;7.63;6.87;;;;;;;15.00;100.00;97579.19;4158901;28;20697;-84
2022/09/16 01:15:17;;;;;;;7.53;6.10;;;;;;;14.99;100.00;97580.16;4136643;28;21238;-85
2022/09/16 01:17:28;;;;;;;6.50;5.90;;;;;;;14.98;100.00;97579.31;4146627;28;20696;-84
2022/09/16 01:19:45;;;;;;;9.40;6.27;;;;;;;14.96;100.00;97586.53;4159554;28;20644;-84
2022/09/16 01:21:53;;;;;;;7.20;6.50;;;;;;;14.95;100.00;97579.63;4156749;28;20648;-83
2022/09/16 01:24:18;;;;;;;8.23;7.43;;;;;;;14.98;100.00;97579.31;4167871;28;20698;-84
2022/09/16 01:26:43;;;;;;;9.33;8.03;;;;;;;15.02;100.00;97585.09;4156286;28;20654;-84
2022/09/16 01:29:07;;;;;;;9.40;8.50;;;;;;;15.06;100.00;97581.22;4139041;28;20643;-84
2022/09/16 01:31:14;;;;;;;9.47;8.47;;;;;;;15.06;100.00;97592.56;4128562;28;20695;-84
2022/09/16 01:33:25;;;;;;;9.83;8.63;;;;;;;15.06;100.00;97587.31;4134263;28;21051;-84
2022/09/16 01:35:35;;;;;;;9.00;7.83;;;;;;;15.05;100.00;97575.16;4173072;28;20672;-84
2022/09/16 01:37:44;;;;;;;9.67;7.80;;;;;;;15.04;100.00;97583.19;4150423;28;20706;-84
2022/09/16 01:39:53;;;;;;;9.17;8.27;;;;;;;15.03;100.00;97581.53;4153477;28;20711;-85
2022/09/16 01:42:13;;;;;;;10.90;7.77;;;;;;;15.05;100.00;97579.56;4137701;28;20637;-84
2022/09/16 01:44:23;;;;;;;10.27;7.60;;;;;;;15.05;100.00;97585.66;4135878;28;21052;-84
2022/09/16 01:46:34;;;;;;;9.97;7.30;;;;;;;15.06;100.00;97586.50;4152220;28;20658;-84
2022/09/16 01:48:40;;;;;;;10.20;7.23;;;;;;;15.07;100.00;97580.28;4133374;28;20811;-84
2022/09/16 01:50:47;;;;;;;10.87;8.47;;;;;;;15.07;100.00;97583.72;4153327;28;20683;-84
2022/09/16 01:53:00;;;;;;;11.37;7.70;;;;;;;15.07;100.00;97585.53;4151057;28;20644;-84
2022/09/16 01:55:05;;;;;;;8.43;7.60;;;;;;;15.06;100.00;97576.81;4163276;28;20648;-85
2022/09/16 01:57:11;;;;;;;11.17;8.07;;;;;;;15.04;100.00;97578.75;4152483;28;21055;-84
2022/09/16 01:59:18;;;;;;;10.80;9.20;;;;;;;15.05;100.00;97579.56;4171940;28;20635;-84
2022/09/16 02:01:23;;;;;;;10.90;9.20;;;;;;;15.07;100.00;97572.41;4140145;28;20690;-84
2022/09/16 02:03:30;;;;;;;11.90;10.67;;;;;;;15.08;100.00;97575.69;4139682;28;21592;-84
2022/09/16 02:05:36;;;;;;;12.00;10.20;;;;;;;15.12;100.00;97579.69;4170287;28;22054;-84
2022/09/16 02:07:43;;;;;;;12.20;10.30;;;;;;;15.16;100.00;97582.84;4155180;28;20688;-85
2022/09/16 02:09:50;;;;;;;12.67;11.40;;;;;;;15.16;100.00;97578.41;4154371;28;20641;-84
2022/09/16 02:11:55;;;;;;;12.47;10.17;;;;;;;15.18;100.00;97580.94;4135870;28;20683;-84
2022/09/16 02:14:01;;;;;;;13.90;10.00;;;;;;;15.19;100.00;97572.91;4149171;28;20641;-85
2022/09/16 02:16:06;;;;;;;11.27;10.07;;;;;;;15.20;100.00;97571.13;4148473;28;20644;-85
2022/09/16 02:18:11;;;;;;;15.10;9.97;;;;;;;15.21;100.00;97572.75;4151823;28;20685;-85
2022/09/16 02:20:19;;;;;;;13.13;11.10;;;;;;;15.21;100.00;97575.38;4149311;28;21022;-85
2022/09/16 02:22:25;;;;;;;11.00;9.67;;;;;;;15.21;100.00;97578.00;4151503;28;21103;-84
2022/09/16 02:24:29;;;;;;;11.23;9.93;;;;;;;15.22;100.00;97580.50;4150189;28;21218;-85
2022/09/16 02:26:36;;;;;;;11.37;10.10;;;;;;;15.24;100.00;97575.09;4140036;28;20741;-84
2022/09/16 02:28:42;;;;;;;12.80;10.53;;;;;;;15.25;100.00;97574.94;4139143;28;21064;-84
2022/09/16 02:30:48;;;;;;;12.00;10.30;;;;;;;15.26;100.00;97579.25;4147709;28;20652;-84
2022/09/16 02:32:56;;;;;;;18.00;10.70;;;;;;;15.26;100.00;97583.66;4151904;28;20639;-85
2022/09/16 02:34:59;;;;;;;11.30;9.77;;;;;;;15.26;100.00;97575.75;4154771;28;20719;-85
2022/09/16 02:37:07;;;;;;;13.60;9.60;;;;;;;15.25;100.00;97576.75;4142390;28;20622;-85
2022/09/16 02:39:12;;;;;;;12.10;8.87;;;;;;;15.26;100.00;97578.41;4167547;28;20670;-85
2022/09/16 02:41:16;;;;;;;11.60;8.47;;;;;;;15.27;100.00;97577.44;4135300;28;21044;-84
2022/09/16 02:43:19;;;;;;;9.20;8.00;;;;;;;15.26;100.00;97574.00;4135546;28;21041;-84
2022/09/16 02:45:26;;;;;;;9.13;8.20;;;;;;;15.21;100.00;97573.56;4141714;28;20645;-84
2022/09/16 02:47:32;;;;;;;11.40;8.90;;;;;;;15.21;100.00;97559.63;4139592;28;20656;-85
2022/09/16 02:49:41;;;;;;;9.63;8.50;;;;;;;15.20;100.00;97550.09;4148813;28;20624;-85
2022/09/16 02:51:54;;;;;;;10.33;8.57;;;;;;;15.20;100.00;97558.81;4150913;28;20631;-84
2022/09/16 02:54:02;;;;;;;13.97;9.33;;;;;;;15.18;100.00;97554.66;4165255;28;20626;-84
2022/09/16 02:56:10;;;;;;;20.43;9.53;;;;;;;15.14;100.00;97548.84;4140939;28;20640;-85
2022/09/16 02:58:15;;;;;;;10.30;9.20;;;;;;;15.16;100.00;97561.84;4153222;28;20705;-84
2022/09/16 03:00:18;;;;;;;10.50;8.37;;;;;;;15.15;100.00;97562.78;4135584;28;20673;-85
2022/09/16 03:02:21;;;;;;;12.27;9.53;;;;;;;15.13;100.00;97557.69;4150164;28;21006;-84
2022/09/16 03:04:24;;;;;;;9.97;8.43;;;;;;;15.08;100.00;97557.31;4131781;28;21217;-84
2022/09/16 03:06:27;;;;;;;10.90;9.30;;;;;;;15.10;100.00;97557.97;4152333;28;21296;-85
2022/09/16 03:08:30;;;;;;;11.90;10.07;;;;;;;15.09;100.00;97564.22;4140618;28;20652;-85
2022/09/16 03:10:39;;;;;;;11.13;9.83;;;;;;;15.11;100.00;97561.44;4135011;28;21210;-84
2022/09/16 03:12:50;;;;;;;12.10;10.30;;;;;;;15.12;100.00;97558.69;4154235;28;20702;-84
2022/09/16 03:15:09;;;;;;;11.60;10.40;;;;;;;15.13;100.00;97568.19;4149360;28;20644;-85
2022/09/16 03:17:32;;;;;;;10.37;9.10;;;;;;;15.12;100.00;97568.34;4139363;28;20726;-85
2022/09/16 03:19:42;;;;;;;11.37;9.10;;;;;;;15.10;100.00;97568.47;4147157;28;20691;-84
2022/09/16 03:21:48;;;;;;;11.83;10.63;;;;;;;15.10;100.00;97563.22;4151631;28;20641;-84
2022/09/16 03:23:56;;;;;;;10.70;9.60;;;;;;;15.11;100.00;97558.81;4140211;28;20631;-85
2022/09/16 03:26:06;;;;;;;10.80;9.73;;;;;;;15.12;100.00;97557.84;4152485;28;21158;-85
2022/09/16 03:28:12;;;;;;;11.00;9.33;;;;;;;15.10;100.00;97563.22;4149877;28;21196;-85
2022/09/16 03:30:15;;;;;;;13.17;9.60;;;;;;;15.10;100.00;97559.78;4135436;28;20691;-85
2022/09/16 03:32:20;;;;;;;13.90;8.97;;;;;;;15.07;100.00;97568.78;4137073;28;20693;-85
2022/09/16 03:34:27;;;;;;;13.80;9.50;;;;;;;15.09;100.00;97571.25;4137979;28;20636;-84
2022/09/16 03:36:33;;;;;;;11.77;9.43;;;;;;;15.09;100.00;97576.50;4141417;28;20679;-85
2022/09/16 03:38:38;;;;;;;9.97;8.90;;;;;;;15.07;100.00;97563.53;4170832;28;20663;-84
2022/09/16 03:40:42;;;;;;;12.80;8.80;;;;;;;15.08;100.00;97559.13;4140580;28;20641;-85
2022/09/16 03:42:46;;;;;;;11.67;9.30;;;;;;;15.07;100.00;97557.44;4148573;28;20662;-84
2022/09/16 03:44:49;;;;;;;15.00;9.87;;;;;;;15.05;100.00;97562.03;4152581;28;20641;-84
2022/09/16 03:46:52;;;;;;;11.17;9.43;;;;;;;15.02;100.00;97559.69;4139370;28;22249;-84
2022/09/16 03:48:56;;;;;;;10.33;9.20;;;;;;;15.00;100.00;97550.28;4155364;28;20694;-85
2022/09/16 03:50:59;;;;;;;14.80;9.20;;;;;;;15.00;100.00;97545.03;4176644;28;21056;-84
2022/09/16 03:53:02;;;;;;;12.00;9.90;;;;;;;15.00;100.00;97551.09;4162413;28;20623;-85
2022/09/16 03:55:05;;;;;;;11.77;10.40;;;;;;;15.03;100.00;97555.25;4142957;28;20666;-85
2022/09/16 03:57:09;;;;;;;10.47;9.37;;;;;;;15.03;100.00;97550.00;4166035;28;20638;-85
2022/09/16 03:59:14;;;;;;;11.43;10.23;;;;;;;15.04;100.00;97549.84;4135929;28;20653;-84
2022/09/16 04:01:17;;;;;;;13.20;9.57;;;;;;;15.07;100.00;97560.91;4153589;28;20644;-84
2022/09/16 04:03:20;;;;;;;11.33;10.13;;;;;;;15.07;100.00;97562.69;4155542;28;20664;-84
2022/09/16 04:05:23;;;;;;;13.37;9.33;;;;;;;15.08;100.00;97562.56;4160633;28;20635;-84
2022/09/16 04:07:26;;;;;;;11.83;10.50;;;;;;;15.11;100.00;97558.81;4152455;28;20667;-84
2022/09/16 04:09:29;;;;;;;11.70;9.30;;;;;;;15.13;100.00;97556.88;4152884;28;20658;-84
2022/09/16 04:11:33;;;;;;;11.90;9.60;;;;;;;15.16;100.00;97567.09;4171092;28;20670;-85
2022/09/16 04:13:36;;;;;;;11.93;9.50;;;;;;;15.16;100.00;97567.09;4149944;28;20795;-85
2022/09/16 04:15:40;;;;;;;10.40;9.07;;;;;;;15.16;100.00;97556.59;4165894;28;20692;-85
2022/09/16 04:17:44;;;;;;;11.60;9.67;;;;;;;15.18;100.00;97560.75;4141056;28;21244;-84
2022/09/16 04:19:47;;;;;;;11.67;9.60;;;;;;;15.20;100.00;97552.72;4155572;28;20705;-84
2022/09/16 04:21:50;;;;;;;11.30;9.30;;;;;;;15.21;100.00;97549.94;4137945;28;20645;-85
2022/09/16 04:23:54;;;;;;;10.30;9.07;;;;;;;15.21;100.00;97549.13;4139207;28;20729;-84
2022/09/16 04:25:58;;;;;;;12.30;9.63;;;;;;;15.19;100.00;97545.81;4154777;28;20645;-85
2022/09/16 04:28:01;;;;;;;11.33;10.00;;;;;;;15.18;99.99;97550.25;4142854;28;20695;-85
2022/09/16 04:30:05;;;;;;;10.80;9.70;;;;;;;15.16;100.00;97548.69;4131996;28;21229;-85
2022/09/16 04:32:10;;;;;;;13.00;9.00;;;;;;;15.15;100.00;97550.50;4142228;28;21057;-84
2022/09/16 04:34:13;;;;;;;14.10;8.90;;;;;;;15.13;100.00;97549.81;4132699;28;20640;-85
2022/09/16 04:36:18;;;;;;;10.13;9.13;;;;;;;15.13;100.00;97551.63;4134182;28;20641;-85
2022/09/16 04:38:20;;;;;;;11.67;9.63;;;;;;;15.13;100.00;97549.00;4145424;28;20633;-85
2022/09/16 04:40:23;;;;;;;15.33;10.43;;;;;;;15.12;100.00;97548.19;4138624;28;20662;-84
2022/09/16 04:42:27;;;;;;;12.40;9.90;;;;;;;15.13;100.00;97544.56;4166983;28;20624;-85
2022/09/16 04:44:30;;;;;;;11.67;9.70;;;;;;;15.13;100.00;97547.19;4135902;28;20629;-87
2022/09/16 04:46:33;;;;;;;11.40;10.10;;;;;;;15.14;100.00;97548.03;4148760;28;20641;-85
2022/09/16 04:48:37;;;;;;;10.23;9.00;;;;;;;15.13;100.00;97543.72;4166695;28;20683;-85
2022/09/16 04:50:41;;;;;;;14.77;10.77;;;;;;;15.14;100.00;97548.03;4137446;28;20642;-85
2022/09/16 04:52:44;;;;;;;13.40;10.00;;;;;;;15.14;100.00;97542.78;4150535;28;20641;-85
2022/09/16 04:54:47;;;;;;;13.07;10.93;;;;;;;15.17;100.00;97553.03;4138773;28;21239;-86
2022/09/16 04:56:50;;;;;;;12.00;10.80;;;;;;;15.18;100.00;97559.91;4148950;28;20653;-85
2022/09/16 04:58:56;;;;;;;11.73;10.40;;;;;;;15.19;100.00;97564.19;4139733;28;20721;-86
2022/09/16 05:01:04;;;;;;;12.33;10.60;;;;;;;15.19;100.00;97554.50;4137941;28;20663;-85
2022/09/16 05:03:07;;;;;;;13.30;9.67;;;;;;;15.20;100.00;97563.25;4152255;28;21319;-85
2022/09/16 05:05:12;;;;;;;19.10;10.00;;;;;;;15.21;100.00;97570.13;4153739;28;20652;-85
2022/09/16 05:07:15;;;;;;;11.07;9.80;;;;;;;15.20;100.00;97566.69;4150184;28;20782;-85
2022/09/16 05:09:21;;;;;;;12.40;9.17;;;;;;;15.21;100.00;97557.00;4134121;28;20654;-85
2022/09/16 05:11:26;;;;;;;11.07;9.83;;;;;;;15.20;100.00;97558.81;4134310;28;20656;-85
2022/09/16 05:13:29;;;;;;;11.50;10.03;;;;;;;15.20;100.00;97564.06;4133154;28;20752;-85
2022/09/16 05:15:33;;;;;;;11.10;9.80;;;;;;;15.18;100.00;97557.28;4135127;28;20656;-85
2022/09/16 05:17:37;;;;;;;12.13;10.30;;;;;;;15.20;100.00;97558.00;4153251;28;21035;-85
2022/09/16 05:19:53;;;;;;;16.13;10.50;;;;;;;15.22;100.00;97556.03;4140881;28;20668;-85
2022/09/16 05:21:57;;;;;;;11.87;9.70;;;;;;;15.23;100.00;97552.41;4161190;28;21089;-85
2022/09/16 05:24:01;;;;;;;13.03;10.80;;;;;;;15.22;100.00;97553.41;4151085;28;20661;-86
2022/09/16 05:26:06;;;;;;;15.40;10.70;;;;;;;15.20;100.00;97547.47;4161651;28;20655;-87
2022/09/16 05:28:09;;;;;;;12.10;10.60;;;;;;;15.21;100.00;97562.25;4141336;28;20720;-85
2022/09/16 05:30:13;;;;;;;12.50;10.37;;;;;;;15.20;100.00;97563.25;4157692;28;20684;-85
2022/09/16 05:32:16;;;;;;;11.53;10.33;;;;;;;15.19;100.00;97561.56;4163651;28;20735;-85
2022/09/16 05:34:21;;;;;;;16.30;10.60;;;;;;;15.20;100.00;97565.88;4138551;28;20678;-85
2022/09/16 05:36:26;;;;;;;11.43;10.00;;;;;;;15.20;100.00;97563.25;4144690;28;21343;-85
2022/09/16 05:38:30;;;;;;;13.20;10.20;;;;;;;15.21;100.00;97554.38;4157513;28;21372;-85
2022/09/16 05:40:33;;;;;;;13.10;10.47;;;;;;;15.23;100.00;97560.28;4152535;28;20652;-85
2022/09/16 05:42:37;;;;;;;12.13;10.50;;;;;;;15.24;100.00;97557.53;4137579;28;21346;-85
2022/09/16 05:44:39;;;;;;;11.70;10.13;;;;;;;15.26;100.00;97563.47;4140583;28;20704;-85
2022/09/16 05:46:43;;;;;;;11.30;10.07;;;;;;;15.27;100.00;97564.28;4150940;28;20657;-85
2022/09/16 05:48:46;;;;;;;12.93;11.20;;;;;;;15.29;100.00;97567.59;4135598;28;21285;-85
2022/09/16 05:50:53;;;;;;;13.60;10.50;;;;;;;15.29;100.00;97562.34;4140683;28;20679;-84
2022/09/16 05:52:56;;;;;;;13.77;11.43;;;;;;;15.28;100.00;97561.53;4154571;28;20767;-85
2022/09/16 05:55:00;;;;;;;11.90;10.60;;;;;;;15.30;100.00;97549.06;4148842;28;21857;-84
2022/09/16 05:57:04;;;;;;;34.77;29.10;;;;;;;15.32;100.00;97551.53;4170129;28;21034;-85
2022/09/16 05:59:11;;;;;;;34.60;30.20;;;;;;;15.33;100.00;97551.38;4137854;28;21020;-85
2022/09/16 06:01:16;;;;;;;15.73;11.63;;;;;;;15.34;100.00;97554.88;4146619;28;20695;-85
2022/09/16 06:03:20;;;;;;;12.30;11.00;;;;;;;15.35;100.00;97564.38;4151267;28;20662;-85
2022/09/16 06:05:23;;;;;;;12.87;11.40;;;;;;;15.35;100.00;97561.75;4141264;28;21012;-85
2022/09/16 06:07:26;;;;;;;12.30;10.90;;;;;;;15.35;100.00;97557.34;4135885;28;20660;-85
2022/09/16 06:09:29;;;;;;;14.23;10.97;;;;;;;15.36;100.00;97560.78;4141841;28;20638;-85
2022/09/16 06:11:36;;;;;;;11.87;9.80;;;;;;;15.38;100.00;97566.72;4140906;28;21089;-85
2022/09/16 06:13:40;;;;;;;11.70;10.50;;;;;;;15.39;100.00;97576.25;4147522;28;20649;-85
2022/09/16 06:15:49;;;;;;;12.90;10.83;;;;;;;15.38;100.00;97578.06;4147399;28;21286;-85
2022/09/16 06:17:52;;;;;;;12.40;11.00;;;;;;;15.40;100.00;97575.31;4145887;28;20673;-84
2022/09/16 06:19:55;;;;;;;12.77;10.40;;;;;;;15.38;100.00;97583.34;4167336;28;20690;-85
2022/09/16 06:21:59;;;;;;;11.50;10.30;;;;;;;15.37;100.00;97580.84;4142077;28;21997;-85
2022/09/16 06:24:07;;;;;;;11.47;9.70;;;;;;;15.38;100.00;97579.84;4170913;28;20652;-85
2022/09/16 06:26:14;;;;;;;11.30;9.70;;;;;;;15.38;100.00;97582.47;4141237;28;20707;-85
2022/09/16 06:28:18;;;;;;;10.80;9.67;;;;;;;15.40;100.00;97591.06;4159227;28;20694;-85
2022/09/16 06:30:21;;;;;;;11.13;9.97;;;;;;;15.39;100.00;97586.78;4132983;28;20664;-85
2022/09/16 06:32:24;;;;;;;12.00;10.50;;;;;;;15.40;100.00;97585.81;4154922;28;20660;-85
2022/09/16 06:34:27;;;;;;;15.80;10.80;;;;;;;15.37;100.00;97592.19;4153599;28;20660;-85
2022/09/16 06:36:32;;;;;;;11.27;10.07;;;;;;;15.34;100.00;97581.13;4134649;28;20656;-85
2022/09/16 06:38:35;;;;;;;12.10;10.67;;;;;;;15.34;100.00;97579.34;4154027;28;20644;-85
2022/09/16 06:40:38;;;;;;;13.30;10.80;;;;;;;15.35;100.00;97582.78;4141092;28;20653;-84
2022/09/16 06:42:41;;;;;;;12.73;10.50;;;;;;;15.35;100.00;97577.53;4137644;28;20740;-84
2022/09/16 06:44:45;;;;;;;13.63;9.80;;;;;;;15.30;100.00;97585.03;4166840;28;20647;-87
2022/09/16 06:46:48;;;;;;;12.00;10.80;;;;;;;15.29;100.00;97580.72;4133722;28;20697;-85
2022/09/16 06:48:53;;;;;;;13.10;10.90;;;;;;;15.28;100.00;97587.78;4136393;28;21042;-87
2022/09/16 06:51:00;;;;;;;13.37;11.10;;;;;;;15.30;100.00;97579.78;4145007;28;20673;-85
2022/09/16 06:53:03;;;;;;;13.13;11.27;;;;;;;15.29;100.00;97586.00;4130475;28;20657;-85
2022/09/16 06:55:07;;;;;;;13.90;11.43;;;;;;;15.29;100.00;97588.63;4139758;28;20657;-85
2022/09/16 06:57:10;;;;;;;14.60;12.13;;;;;;;15.30;100.00;97580.59;4138317;28;20663;-85
2022/09/16 06:59:14;;;;;;;6.90;5.10;;;;;;;15.26;99.66;97584.50;4136972;28;20670;-85
2022/09/16 07:01:20;;;;;;;9.03;6.00;;;;;;;15.19;98.97;97590.47;4154715;28;20672;-84
2022/09/16 07:03:23;;;;;;;10.03;7.00;;;;;;;15.19;98.36;97588.66;4164689;28;21018;-85
2022/09/16 07:05:26;;;;;;;10.20;7.27;;;;;;;15.21;99.15;97591.16;4168719;28;21044;-85
2022/09/16 07:07:31;;;;;;;9.80;6.73;;;;;;;15.22;98.90;97579.69;4148741;28;20695;-84
2022/09/16 07:09:34;;;;;;;7.00;5.77;;;;;;;15.22;98.54;97583.13;4165703;28;20635;-83
2022/09/16 07:11:39;;;;;;;6.87;5.30;;;;;;;15.19;97.53;97587.84;4156750;28;20652;-83
2022/09/16 07:13:43;;;;;;;6.90;5.07;;;;;;;15.16;96.23;97596.00;4156115;28;21205;-84
2022/09/16 07:15:46;;;;;;;6.73;5.50;;;;;;;15.17;99.00;97582.75;4138660;28;20645;-84
2022/09/16 07:18:11;;;;;;;7.77;5.53;;;;;;;15.20;99.14;97587.69;4148477;28;20659;-84
2022/09/16 07:20:14;;;;;;;8.23;5.97;;;;;;;15.18;96.35;97586.19;4148083;28;20648;-84
2022/09/16 07:22:17;;;;;;;8.10;6.40;;;;;;;15.18;98.63;97589.66;4152774;28;20644;-85
2022/09/16 07:24:20;;;;;;;8.37;5.60;;;;;;;15.20;99.52;97584.25;4139240;28;20684;-84
2022/09/16 07:26:25;;;;;;;6.80;5.43;;;;;;;15.24;98.56;97590.84;4149161;28;20672;-84
2022/09/16 07:28:28;;;;;;;6.50;5.03;;;;;;;15.26;99.69;97584.50;4146713;28;20715;-85
2022/09/16 07:30:33;;;;;;;7.20;5.53;;;;;;;15.28;99.13;97585.16;4136284;28;20762;-85
2022/09/16 07:32:37;;;;;;;6.37;5.03;;;;;;;15.29;99.04;97578.94;4144186;28;21234;-84
2022/09/16 07:34:41;;;;;;;6.70;5.77;;;;;;;15.35;100.00;97577.53;4140365;28;20711;-85
2022/09/16 07:36:47;;;;;;;6.70;5.07;;;;;;;15.40;99.82;97583.19;4170753;28;21214;-84
2022/09/16 07:38:51;;;;;;;6.47;5.20;;;;;;;15.43;99.94;97585.53;4134217;28;20690;-85
2022/09/16 07:40:54;;;;;;;9.03;5.70;;;;;;;15.43;100.00;97588.97;4151552;28;20668;-84
2022/09/16 07:42:57;;;;;;;6.17;5.00;;;;;;;15.44;100.00;97598.53;4169173;28;21162;-84
2022/09/16 07:45:00;;;;;;;7.07;4.80;;;;;;;15.44;99.93;97606.41;4143440;28;21165;-84
2022/09/16 07:47:03;;;;;;;5.90;4.47;;;;;;;15.44;100.00;97595.03;4141383;28;20704;-84
2022/09/16 07:49:08;;;;;;;6.50;4.63;;;;;;;15.46;100.00;97603.63;4164071;28;20743;-85
2022/09/16 07:51:14;;;;;;;7.63;5.03;;;;;;;15.50;99.29;97608.44;4168518;28;20736;-84
2022/09/16 07:53:17;;;;;;;5.50;4.57;;;;;;;15.52;98.99;97603.88;4140434;28;21044;-84
2022/09/16 07:55:20;;;;;;;6.33;4.70;;;;;;;15.56;100.00;97602.59;4146171;28;21062;-85
2022/09/16 07:57:23;;;;;;;5.03;4.20;;;;;;;15.56;100.00;97600.78;4138764;28;21098;-84
2022/09/16 07:59:26;;;;;;;7.83;4.00;;;;;;;15.58;98.18;97603.28;4138020;28;20997;-84
2022/09/16 08:01:30;;;;;;;6.03;3.77;;;;;;;15.59;99.69;97587.34;4145816;28;20801;-85
2022/09/16 08:03:34;;;;;;;6.83;4.90;;;;;;;15.64;100.00;97586.91;4167188;28;20686;-85
2022/09/16 08:05:37;;;;;;;7.20;4.43;;;;;;;15.70;99.50;97597.66;4143665;28;20680;-84
2022/09/16 08:07:41;;;;;;;4.97;3.73;;;;;;;15.74;100.00;97603.44;4153474;28;21050;-85
2022/09/16 08:09:44;;;;;;;6.20;4.13;;;;;;;15.76;98.88;97604.97;4150715;28;20710;-85
2022/09/16 08:11:53;;;;;;;5.63;4.10;;;;;;;15.78;98.59;97605.63;4138865;28;20713;-85
2022/09/16 08:13:58;;;;;;;7.23;4.63;;;;;;;15.78;98.58;97608.25;4141585;28;20644;-85
2022/09/16 08:16:03;;;;;;;5.33;3.37;;;;;;;15.80;99.40;97618.63;4154909;28;20707;-84
2022/09/16 08:18:07;;;;;;;4.83;3.27;;;;;;;15.78;98.52;97613.50;4136642;28;20707;-85
2022/09/16 08:20:10;;;;;;;4.80;4.00;;;;;;;15.75;97.21;97621.69;4152885;28;21282;-84
2022/09/16 08:22:13;;;;;;;4.60;3.97;;;;;;;15.74;96.35;97627.94;4147999;28;20683;-85
2022/09/16 08:24:17;;;;;;;6.63;3.20;;;;;;;15.74;96.53;97622.69;4163383;28;20659;-84
2022/09/16 08:26:21;;;;;;;6.03;3.90;;;;;;;15.75;95.95;97618.25;4141805;28;21276;-84
2022/09/16 08:28:25;;;;;;;8.27;3.93;;;;;;;15.78;96.34;97615.31;4139657;28;20644;-85
2022/09/16 08:30:34;;;;;;;5.00;3.57;;;;;;;15.79;94.23;97628.31;4144213;28;20660;-85
2022/09/16 08:32:37;;;;;;;4.93;3.23;;;;;;;15.79;95.67;97628.31;4148654;28;20623;-84
2022/09/16 08:34:40;;;;;;;5.07;3.10;;;;;;;15.82;96.08;97627.22;4149048;28;20668;-84
2022/09/16 08:36:43;;;;;;;6.97;3.30;;;;;;;15.84;93.25;97630.50;4143973;28;21098;-85
2022/09/16 08:38:48;;;;;;;5.43;3.20;;;;;;;15.83;93.55;97624.44;4148348;28;20656;-85
2022/09/16 08:40:53;;;;;;;5.03;3.40;;;;;;;15.86;94.58;97620.66;4134985;28;21397;-84
2022/09/16 08:43:04;;;;;;;6.20;3.70;;;;;;;15.94;93.71;97629.47;4148883;28;20726;-84
2022/09/16 08:45:18;;;;;;;6.53;4.37;;;;;;;16.01;93.75;97633.16;4142928;28;20762;-84
2022/09/16 08:47:30;;;;;;;6.13;4.20;;;;;;;16.04;95.02;97638.13;4150603;28;20732;-84
2022/09/16 08:49:36;;;;;;;6.63;4.40;;;;;;;16.07;94.23;97643.06;4151875;28;20650;-84
2022/09/16 08:51:43;;;;;;;9.03;4.47;;;;;;;16.10;96.08;97641.00;4148731;28;20656;-84
2022/09/16 08:53:50;;;;;;;6.60;4.40;;;;;;;16.11;96.56;97639.19;4170762;28;21064;-84
2022/09/16 08:55:54;;;;;;;6.77;4.80;;;;;;;16.10;96.52;97635.75;4145669;28;20647;-83
2022/09/16 08:58:03;;;;;;;6.17;4.60;;;;;;;16.10;97.13;97640.16;4157813;28;20763;-85
2022/09/16 09:00:12;;;;;;;6.00;4.90;;;;;;;16.13;97.42;97645.13;4167319;28;21055;-84
2022/09/16 09:02:33;;;;;;;6.90;5.13;;;;;;;16.10;96.45;97635.75;4139787;28;20661;-85
2022/09/16 09:04:37;;;;;;;6.13;4.80;;;;;;;16.06;96.41;97633.56;4139723;28;20653;-84
2022/09/16 09:06:51;;;;;;;8.07;5.07;;;;;;;16.08;96.85;97634.22;4168601;28;20674;-84
2022/09/16 09:09:00;;;;;;;9.20;5.50;;;;;;;16.09;97.13;97634.06;4153915;28;21311;-84
2022/09/16 09:11:10;;;;;;;19.20;14.80;;;;;;;16.17;96.15;97636.78;4155572;28;20684;-85
2022/09/16 09:13:25;;;;;;;10.93;9.23;;;;;;;16.24;96.43;97632.59;4155912;28;20644;-84
2022/09/16 09:15:37;;;;;;;7.93;5.03;;;;;;;16.30;95.01;97632.00;4141851;28;21259;-84
2022/09/16 09:17:51;;;;;;;7.20;5.10;;;;;;;16.34;95.21;97632.53;4138186;28;20649;-85
2022/09/16 09:20:04;;;;;;;6.47;5.80;;;;;;;16.41;96.53;97644.94;4174915;28;20686;-84
2022/09/16 09:22:18;;;;;;;6.93;5.10;;;;;;;16.38;95.34;97639.16;4167829;28;20664;-84
2022/09/16 09:24:41;;;;;;;6.80;5.30;;;;;;;16.28;93.27;97631.34;4146646;28;20641;-84
2022/09/16 09:26:48;;;;;;;6.93;5.70;;;;;;;16.24;95.63;97635.25;4171082;28;20661;-84
2022/09/16 09:29:21;;;;;;;9.97;6.10;;;;;;;16.27;96.13;97634.94;4151314;28;20655;-84
2022/09/16 09:31:30;;;;;;;7.00;5.70;;;;;;;16.26;95.59;97637.72;4143839;28;20684;-85
2022/09/16 09:33:39;;;;;;;9.63;6.07;;;;;;;16.27;95.45;97636.75;4159107;28;20635;-85
2022/09/16 09:36:02;;;;;;;6.07;5.47;;;;;;;16.30;96.93;97633.81;4166440;28;20635;-85
2022/09/16 09:38:24;;;;;;;6.70;5.70;;;;;;;16.38;94.99;97629.44;4136283;28;20650;-85
2022/09/16 09:40:33;;;;;;;6.33;5.67;;;;;;;16.49;95.86;97644.19;4154640;28;21072;-85
2022/09/16 09:42:41;;;;;;;8.10;6.40;;;;;;;16.53;95.17;97644.53;4151816;28;20701;-84